sensor_id;sensor_type;location;lat;lon;timestamp;P1;durP1;ratioP1;P2;durP2;ratioP2
12968;SDS011;6549;53.128;8.182;2023-02-15T00:01:04;20.25;;;13.18;;
12968;SDS011;6549;53.128;8.182;2023-02-15T00:04:07;19.88;;;11.95;;
12968;SDS011;6549;53.128;8.182;2023-02-15T00:07:08;21.33;;;13.33;;
12968;SDS011;6549;53.128;8.182;2023-02-15T00:10:08;27.43;;;15.33;;
12968;SDS011;6549;53.128;8.182;2023-02-15T00:13:08;29.40;;;16.05;;
12968;SDS011;6549;53.128;8.182;2023-02-15T00:16:10;28.73;;;15.70;;
12968;SDS011;6549;53.128;8.182;2023-02-15T00:19:12;28.73;;;16.30;;
12968;SDS011;6549;53.128;8.182;2023-02-15T00:22:14;31.83;;;16.58;;
12968;SDS011;6549;53.128;8.182;2023-02-15T00:25:14;28.13;;;15.63;;
12968;SDS011;6549;53.128;8.182;2023-02-15T00:28:14;28.92;;;15.70;;
12968;SDS011;6549;53.128;8.182;2023-02-15T00:31:15;28.73;;;17.25;;
12968;SDS011;6549;53.128;8.182;2023-02-15T00:34:17;29.50;;;16.63;;
12968;SDS011;6549;53.128;8.182;2023-02-15T00:37:22;24.70;;;13.98;;
12968;SDS011;6549;53.128;8.182;2023-02-15T00:40:22;24.13;;;13.68;;
12968;SDS011;6549;53.128;8.182;2023-02-15T00:43:22;24.77;;;15.23;;
12968;SDS011;6549;53.128;8.182;2023-02-15T00:46:23;25.50;;;14.77;;
12968;SDS011;6549;53.128;8.182;2023-02-15T00:49:24;24.60;;;15.13;;
12968;SDS011;6549;53.128;8.182;2023-02-15T00:52:24;25.42;;;15.45;;
12968;SDS011;6549;53.128;8.182;2023-02-15T00:55:24;26.37;;;15.40;;
12968;SDS011;6549;53.128;8.182;2023-02-15T00:58:25;25.65;;;14.75;;
12968;SDS011;6549;53.128;8.182;2023-02-15T01:01:25;22.42;;;13.50;;
12968;SDS011;6549;53.128;8.182;2023-02-15T01:04:26;25.98;;;15.18;;
12968;SDS011;6549;53.128;8.182;2023-02-15T01:07:26;21.20;;;13.40;;
12968;SDS011;6549;53.128;8.182;2023-02-15T01:10:29;19.58;;;12.80;;
12968;SDS011;6549;53.128;8.182;2023-02-15T01:13:30;23.17;;;14.07;;
12968;SDS011;6549;53.128;8.182;2023-02-15T01:16:30;21.67;;;13.13;;
12968;SDS011;6549;53.128;8.182;2023-02-15T01:19:31;19.60;;;12.90;;
12968;SDS011;6549;53.128;8.182;2023-02-15T01:22:32;27.50;;;16.77;;
12968;SDS011;6549;53.128;8.182;2023-02-15T01:25:33;24.20;;;15.75;;
12968;SDS011;6549;53.128;8.182;2023-02-15T01:28:34;23.48;;;14.77;;
12968;SDS011;6549;53.128;8.182;2023-02-15T01:31:35;18.00;;;12.50;;
12968;SDS011;6549;53.128;8.182;2023-02-15T01:34:35;20.77;;;12.15;;
12968;SDS011;6549;53.128;8.182;2023-02-15T01:37:36;17.17;;;11.63;;
12968;SDS011;6549;53.128;8.182;2023-02-15T01:40:37;21.38;;;14.55;;
12968;SDS011;6549;53.128;8.182;2023-02-15T01:43:39;22.90;;;14.88;;
12968;SDS011;6549;53.128;8.182;2023-02-15T01:46:42;25.48;;;15.02;;
12968;SDS011;6549;53.128;8.182;2023-02-15T01:49:52;22.13;;;13.55;;
12968;SDS011;6549;53.128;8.182;2023-02-15T01:56:23;19.30;;;12.80;;
12968;SDS011;6549;53.128;8.182;2023-02-15T01:59:27;25.33;;;13.15;;
12968;SDS011;6549;53.128;8.182;2023-02-15T02:02:28;19.30;;;12.27;;
12968;SDS011;6549;53.128;8.182;2023-02-15T02:05:29;19.45;;;12.32;;
12968;SDS011;6549;53.128;8.182;2023-02-15T02:08:30;18.77;;;11.85;;
12968;SDS011;6549;53.128;8.182;2023-02-15T02:11:31;19.23;;;11.52;;
12968;SDS011;6549;53.128;8.182;2023-02-15T02:14:33;19.95;;;12.30;;
12968;SDS011;6549;53.128;8.182;2023-02-15T02:24:34;21.25;;;11.85;;
12968;SDS011;6549;53.128;8.182;2023-02-15T02:27:39;18.98;;;11.40;;
12968;SDS011;6549;53.128;8.182;2023-02-15T02:34:13;25.13;;;14.40;;
12968;SDS011;6549;53.128;8.182;2023-02-15T02:50:48;16.38;;;10.50;;
12968;SDS011;6549;53.128;8.182;2023-02-15T02:53:50;18.40;;;11.70;;
12968;SDS011;6549;53.128;8.182;2023-02-15T02:56:53;20.17;;;11.98;;
12968;SDS011;6549;53.128;8.182;2023-02-15T02:59:56;19.83;;;11.82;;
12968;SDS011;6549;53.128;8.182;2023-02-15T03:03:00;19.40;;;10.65;;
12968;SDS011;6549;53.128;8.182;2023-02-15T03:06:06;16.38;;;11.10;;
12968;SDS011;6549;53.128;8.182;2023-02-15T03:09:14;19.13;;;11.00;;
12968;SDS011;6549;53.128;8.182;2023-02-15T03:12:23;19.00;;;11.45;;
12968;SDS011;6549;53.128;8.182;2023-02-15T03:15:31;18.95;;;11.95;;
12968;SDS011;6549;53.128;8.182;2023-02-15T03:18:55;21.42;;;13.20;;
12968;SDS011;6549;53.128;8.182;2023-02-15T03:22:10;19.95;;;12.25;;
12968;SDS011;6549;53.128;8.182;2023-02-15T03:25:16;25.30;;;16.27;;
12968;SDS011;6549;53.128;8.182;2023-02-15T03:28:26;22.67;;;14.02;;
12968;SDS011;6549;53.128;8.182;2023-02-15T03:31:31;23.67;;;14.00;;
12968;SDS011;6549;53.128;8.182;2023-02-15T03:34:35;22.92;;;14.15;;
12968;SDS011;6549;53.128;8.182;2023-02-15T03:38:09;20.65;;;12.57;;
12968;SDS011;6549;53.128;8.182;2023-02-15T03:41:05;20.60;;;12.25;;
12968;SDS011;6549;53.128;8.182;2023-02-15T03:44:15;21.27;;;12.15;;
12968;SDS011;6549;53.128;8.182;2023-02-15T03:47:33;18.48;;;11.77;;
12968;SDS011;6549;53.128;8.182;2023-02-15T03:50:37;18.88;;;10.88;;
12968;SDS011;6549;53.128;8.182;2023-02-15T03:53:57;22.60;;;13.40;;
12968;SDS011;6549;53.128;8.182;2023-02-15T03:57:01;21.40;;;12.00;;
12968;SDS011;6549;53.128;8.182;2023-02-15T04:00:24;29.25;;;16.33;;
12968;SDS011;6549;53.128;8.182;2023-02-15T04:03:45;25.73;;;14.70;;
12968;SDS011;6549;53.128;8.182;2023-02-15T04:06:54;24.63;;;14.10;;
12968;SDS011;6549;53.128;8.182;2023-02-15T04:09:54;22.83;;;13.73;;
12968;SDS011;6549;53.128;8.182;2023-02-15T04:13:13;23.67;;;14.45;;
12968;SDS011;6549;53.128;8.182;2023-02-15T04:16:13;31.02;;;16.13;;
12968;SDS011;6549;53.128;8.182;2023-02-15T04:19:14;30.97;;;16.07;;
12968;SDS011;6549;53.128;8.182;2023-02-15T04:22:33;24.33;;;14.70;;
12968;SDS011;6549;53.128;8.182;2023-02-15T04:25:51;31.90;;;17.00;;
12968;SDS011;6549;53.128;8.182;2023-02-15T04:28:52;21.80;;;13.03;;
12968;SDS011;6549;53.128;8.182;2023-02-15T04:31:52;24.07;;;14.27;;
12968;SDS011;6549;53.128;8.182;2023-02-15T04:34:54;26.10;;;14.25;;
12968;SDS011;6549;53.128;8.182;2023-02-15T04:37:54;22.90;;;13.35;;
12968;SDS011;6549;53.128;8.182;2023-02-15T04:40:55;24.00;;;14.93;;
12968;SDS011;6549;53.128;8.182;2023-02-15T04:43:55;26.73;;;14.73;;
12968;SDS011;6549;53.128;8.182;2023-02-15T04:46:57;34.20;;;16.02;;
12968;SDS011;6549;53.128;8.182;2023-02-15T04:49:57;23.73;;;14.57;;
12968;SDS011;6549;53.128;8.182;2023-02-15T04:52:57;28.57;;;15.43;;
12968;SDS011;6549;53.128;8.182;2023-02-15T04:55:58;26.92;;;15.50;;
12968;SDS011;6549;53.128;8.182;2023-02-15T04:58:58;22.75;;;13.45;;
12968;SDS011;6549;53.128;8.182;2023-02-15T05:01:58;26.60;;;14.30;;
12968;SDS011;6549;53.128;8.182;2023-02-15T05:04:58;25.13;;;15.13;;
12968;SDS011;6549;53.128;8.182;2023-02-15T05:07:59;27.90;;;14.87;;
12968;SDS011;6549;53.128;8.182;2023-02-15T05:10:59;24.58;;;13.65;;
12968;SDS011;6549;53.128;8.182;2023-02-15T05:13:59;46.08;;;18.55;;
12968;SDS011;6549;53.128;8.182;2023-02-15T05:16:59;27.20;;;15.27;;
12968;SDS011;6549;53.128;8.182;2023-02-15T05:20:01;29.92;;;15.68;;
12968;SDS011;6549;53.128;8.182;2023-02-15T05:23:02;28.83;;;15.02;;
12968;SDS011;6549;53.128;8.182;2023-02-15T05:26:02;28.23;;;15.35;;
12968;SDS011;6549;53.128;8.182;2023-02-15T05:29:21;32.03;;;16.40;;
12968;SDS011;6549;53.128;8.182;2023-02-15T05:32:21;39.77;;;18.47;;
12968;SDS011;6549;53.128;8.182;2023-02-15T05:35:22;28.98;;;16.95;;
12968;SDS011;6549;53.128;8.182;2023-02-15T05:38:22;27.50;;;16.05;;
12968;SDS011;6549;53.128;8.182;2023-02-15T05:41:22;28.67;;;15.15;;
12968;SDS011;6549;53.128;8.182;2023-02-15T05:44:23;27.13;;;14.10;;
12968;SDS011;6549;53.128;8.182;2023-02-15T05:47:24;22.42;;;12.90;;
12968;SDS011;6549;53.128;8.182;2023-02-15T05:50:24;32.58;;;17.45;;
12968;SDS011;6549;53.128;8.182;2023-02-15T05:53:26;27.15;;;15.23;;
12968;SDS011;6549;53.128;8.182;2023-02-15T05:56:27;25.90;;;15.20;;
12968;SDS011;6549;53.128;8.182;2023-02-15T05:59:27;24.98;;;13.77;;
12968;SDS011;6549;53.128;8.182;2023-02-15T06:02:27;27.17;;;14.90;;
12968;SDS011;6549;53.128;8.182;2023-02-15T06:05:28;24.70;;;14.03;;
12968;SDS011;6549;53.128;8.182;2023-02-15T06:08:28;23.35;;;13.77;;
12968;SDS011;6549;53.128;8.182;2023-02-15T06:11:29;24.37;;;14.77;;
12968;SDS011;6549;53.128;8.182;2023-02-15T06:14:29;34.30;;;19.75;;
12968;SDS011;6549;53.128;8.182;2023-02-15T06:17:29;29.25;;;18.02;;
12968;SDS011;6549;53.128;8.182;2023-02-15T06:20:29;30.58;;;17.13;;
12968;SDS011;6549;53.128;8.182;2023-02-15T06:23:30;35.88;;;19.13;;
12968;SDS011;6549;53.128;8.182;2023-02-15T06:26:30;26.75;;;16.17;;
12968;SDS011;6549;53.128;8.182;2023-02-15T06:29:30;26.37;;;15.53;;
12968;SDS011;6549;53.128;8.182;2023-02-15T06:32:31;26.45;;;14.75;;
12968;SDS011;6549;53.128;8.182;2023-02-15T06:35:31;22.20;;;13.93;;
12968;SDS011;6549;53.128;8.182;2023-02-15T06:38:32;22.25;;;13.32;;
12968;SDS011;6549;53.128;8.182;2023-02-15T06:41:32;23.02;;;12.77;;
12968;SDS011;6549;53.128;8.182;2023-02-15T06:44:32;26.42;;;15.43;;
12968;SDS011;6549;53.128;8.182;2023-02-15T06:47:33;25.95;;;14.57;;
12968;SDS011;6549;53.128;8.182;2023-02-15T06:50:33;23.65;;;14.40;;
12968;SDS011;6549;53.128;8.182;2023-02-15T06:53:34;27.50;;;16.27;;
12968;SDS011;6549;53.128;8.182;2023-02-15T06:56:35;24.85;;;14.30;;
12968;SDS011;6549;53.128;8.182;2023-02-15T06:59:35;23.10;;;12.63;;
12968;SDS011;6549;53.128;8.182;2023-02-15T07:02:36;27.75;;;17.55;;
12968;SDS011;6549;53.128;8.182;2023-02-15T07:05:36;22.95;;;13.65;;
12968;SDS011;6549;53.128;8.182;2023-02-15T07:08:37;22.07;;;13.57;;
12968;SDS011;6549;53.128;8.182;2023-02-15T07:11:38;23.85;;;14.20;;
12968;SDS011;6549;53.128;8.182;2023-02-15T07:14:57;24.13;;;16.20;;
12968;SDS011;6549;53.128;8.182;2023-02-15T07:17:58;26.30;;;14.93;;
12968;SDS011;6549;53.128;8.182;2023-02-15T07:20:59;22.38;;;13.55;;
12968;SDS011;6549;53.128;8.182;2023-02-15T07:23:59;26.57;;;14.90;;
12968;SDS011;6549;53.128;8.182;2023-02-15T07:26:59;20.27;;;12.52;;
12968;SDS011;6549;53.128;8.182;2023-02-15T07:30:00;17.52;;;12.15;;
12968;SDS011;6549;53.128;8.182;2023-02-15T07:33:00;20.33;;;11.90;;
12968;SDS011;6549;53.128;8.182;2023-02-15T07:36:19;18.80;;;11.75;;
12968;SDS011;6549;53.128;8.182;2023-02-15T07:39:19;18.40;;;12.05;;
12968;SDS011;6549;53.128;8.182;2023-02-15T07:42:20;22.17;;;12.15;;
12968;SDS011;6549;53.128;8.182;2023-02-15T07:45:21;19.55;;;11.38;;
12968;SDS011;6549;53.128;8.182;2023-02-15T07:48:22;22.45;;;13.15;;
12968;SDS011;6549;53.128;8.182;2023-02-15T07:51:22;27.92;;;15.38;;
12968;SDS011;6549;53.128;8.182;2023-02-15T07:54:23;24.30;;;13.20;;
12968;SDS011;6549;53.128;8.182;2023-02-15T07:57:23;24.67;;;14.47;;
12968;SDS011;6549;53.128;8.182;2023-02-15T08:00:23;33.53;;;18.10;;
12968;SDS011;6549;53.128;8.182;2023-02-15T08:03:25;36.13;;;18.67;;
12968;SDS011;6549;53.128;8.182;2023-02-15T08:06:30;30.63;;;17.38;;
12968;SDS011;6549;53.128;8.182;2023-02-15T08:09:33;29.60;;;17.67;;
12968;SDS011;6549;53.128;8.182;2023-02-15T08:12:33;30.35;;;17.90;;
12968;SDS011;6549;53.128;8.182;2023-02-15T08:15:33;39.40;;;20.20;;
12968;SDS011;6549;53.128;8.182;2023-02-15T08:18:34;30.13;;;17.77;;
12968;SDS011;6549;53.128;8.182;2023-02-15T08:21:35;27.60;;;16.77;;
12968;SDS011;6549;53.128;8.182;2023-02-15T08:24:37;26.63;;;15.23;;
12968;SDS011;6549;53.128;8.182;2023-02-15T08:27:38;28.23;;;17.77;;
12968;SDS011;6549;53.128;8.182;2023-02-15T08:30:38;29.42;;;17.02;;
12968;SDS011;6549;53.128;8.182;2023-02-15T08:33:39;30.50;;;18.80;;
12968;SDS011;6549;53.128;8.182;2023-02-15T08:39:42;47.47;;;27.00;;
12968;SDS011;6549;53.128;8.182;2023-02-15T08:42:43;49.65;;;27.58;;
12968;SDS011;6549;53.128;8.182;2023-02-15T08:45:43;47.70;;;27.87;;
12968;SDS011;6549;53.128;8.182;2023-02-15T08:48:44;42.50;;;25.57;;
12968;SDS011;6549;53.128;8.182;2023-02-15T08:51:44;42.72;;;25.65;;
12968;SDS011;6549;53.128;8.182;2023-02-15T08:54:45;46.83;;;26.83;;
12968;SDS011;6549;53.128;8.182;2023-02-15T08:57:45;42.60;;;25.08;;
12968;SDS011;6549;53.128;8.182;2023-02-15T09:00:46;46.55;;;24.33;;
12968;SDS011;6549;53.128;8.182;2023-02-15T09:03:48;38.57;;;22.90;;
12968;SDS011;6549;53.128;8.182;2023-02-15T09:06:50;39.60;;;22.67;;
12968;SDS011;6549;53.128;8.182;2023-02-15T09:09:51;36.65;;;22.05;;
12968;SDS011;6549;53.128;8.182;2023-02-15T09:12:51;32.05;;;20.20;;
12968;SDS011;6549;53.128;8.182;2023-02-15T09:15:58;32.78;;;20.25;;
12968;SDS011;6549;53.128;8.182;2023-02-15T09:18:59;31.23;;;20.33;;
12968;SDS011;6549;53.128;8.182;2023-02-15T09:22:06;35.13;;;21.30;;
12968;SDS011;6549;53.128;8.182;2023-02-15T09:25:06;30.38;;;20.63;;
12968;SDS011;6549;53.128;8.182;2023-02-15T09:28:07;32.78;;;20.52;;
12968;SDS011;6549;53.128;8.182;2023-02-15T09:31:14;32.08;;;21.25;;
12968;SDS011;6549;53.128;8.182;2023-02-15T09:34:17;33.53;;;22.92;;
12968;SDS011;6549;53.128;8.182;2023-02-15T09:37:19;75.65;;;39.65;;
12968;SDS011;6549;53.128;8.182;2023-02-15T09:40:20;33.97;;;23.47;;
12968;SDS011;6549;53.128;8.182;2023-02-15T09:43:29;32.15;;;22.17;;
12968;SDS011;6549;53.128;8.182;2023-02-15T09:54:03;36.85;;;23.50;;
12968;SDS011;6549;53.128;8.182;2023-02-15T10:00:30;39.38;;;23.42;;
12968;SDS011;6549;53.128;8.182;2023-02-15T10:22:54;33.55;;;23.50;;
12968;SDS011;6549;53.128;8.182;2023-02-15T10:29:34;35.85;;;24.75;;
12968;SDS011;6549;53.128;8.182;2023-02-15T10:32:43;32.70;;;23.38;;
12968;SDS011;6549;53.128;8.182;2023-02-15T10:39:05;37.88;;;25.15;;
12968;SDS011;6549;53.128;8.182;2023-02-15T10:46:09;35.42;;;24.73;;
12968;SDS011;6549;53.128;8.182;2023-02-15T10:52:51;36.83;;;24.75;;
12968;SDS011;6549;53.128;8.182;2023-02-15T10:59:32;39.00;;;25.80;;
12968;SDS011;6549;53.128;8.182;2023-02-15T11:05:50;39.03;;;25.23;;
12968;SDS011;6549;53.128;8.182;2023-02-15T11:09:01;38.83;;;26.20;;
12968;SDS011;6549;53.128;8.182;2023-02-15T11:12:07;38.47;;;26.67;;
12968;SDS011;6549;53.128;8.182;2023-02-15T11:15:25;37.70;;;26.85;;
12968;SDS011;6549;53.128;8.182;2023-02-15T11:18:52;41.75;;;27.70;;
12968;SDS011;6549;53.128;8.182;2023-02-15T11:22:01;35.67;;;25.67;;
12968;SDS011;6549;53.128;8.182;2023-02-15T11:25:14;41.55;;;28.13;;
12968;SDS011;6549;53.128;8.182;2023-02-15T11:28:19;39.67;;;27.60;;
12968;SDS011;6549;53.128;8.182;2023-02-15T11:31:36;37.67;;;26.13;;
12968;SDS011;6549;53.128;8.182;2023-02-15T11:34:59;39.92;;;26.60;;
12968;SDS011;6549;53.128;8.182;2023-02-15T11:38:14;41.25;;;29.05;;
12968;SDS011;6549;53.128;8.182;2023-02-15T11:41:19;42.67;;;30.40;;
12968;SDS011;6549;53.128;8.182;2023-02-15T11:44:32;40.22;;;29.08;;
12968;SDS011;6549;53.128;8.182;2023-02-15T11:47:36;41.83;;;28.00;;
12968;SDS011;6549;53.128;8.182;2023-02-15T11:50:37;46.60;;;29.95;;
12968;SDS011;6549;53.128;8.182;2023-02-15T11:53:37;43.08;;;29.35;;
12968;SDS011;6549;53.128;8.182;2023-02-15T11:56:39;44.08;;;29.63;;
12968;SDS011;6549;53.128;8.182;2023-02-15T11:59:40;46.13;;;31.08;;
12968;SDS011;6549;53.128;8.182;2023-02-15T12:02:46;46.72;;;30.17;;
12968;SDS011;6549;53.128;8.182;2023-02-15T12:05:53;44.33;;;30.95;;
12968;SDS011;6549;53.128;8.182;2023-02-15T12:12:30;42.80;;;28.88;;
12968;SDS011;6549;53.128;8.182;2023-02-15T12:15:33;46.38;;;31.45;;
12968;SDS011;6549;53.128;8.182;2023-02-15T12:18:38;43.35;;;30.35;;
12968;SDS011;6549;53.128;8.182;2023-02-15T12:21:40;43.13;;;29.75;;
12968;SDS011;6549;53.128;8.182;2023-02-15T12:24:45;46.30;;;31.02;;
12968;SDS011;6549;53.128;8.182;2023-02-15T12:27:47;45.78;;;29.90;;
12968;SDS011;6549;53.128;8.182;2023-02-15T12:30:48;41.85;;;29.70;;
12968;SDS011;6549;53.128;8.182;2023-02-15T12:33:51;45.83;;;30.50;;
12968;SDS011;6549;53.128;8.182;2023-02-15T12:36:54;45.30;;;29.80;;
12968;SDS011;6549;53.128;8.182;2023-02-15T12:40:01;45.97;;;30.80;;
12968;SDS011;6549;53.128;8.182;2023-02-15T12:43:34;44.95;;;29.98;;
12968;SDS011;6549;53.128;8.182;2023-02-15T12:46:35;48.13;;;30.83;;
12968;SDS011;6549;53.128;8.182;2023-02-15T12:49:36;42.33;;;30.03;;
12968;SDS011;6549;53.128;8.182;2023-02-15T12:52:37;42.53;;;27.98;;
12968;SDS011;6549;53.128;8.182;2023-02-15T12:55:38;39.63;;;26.10;;
12968;SDS011;6549;53.128;8.182;2023-02-15T12:58:48;39.72;;;26.60;;
12968;SDS011;6549;53.128;8.182;2023-02-15T13:02:05;38.67;;;26.13;;
12968;SDS011;6549;53.128;8.182;2023-02-15T13:05:21;40.72;;;26.50;;
12968;SDS011;6549;53.128;8.182;2023-02-15T13:08:27;41.80;;;27.50;;
12968;SDS011;6549;53.128;8.182;2023-02-15T13:11:30;39.67;;;25.52;;
12968;SDS011;6549;53.128;8.182;2023-02-15T13:14:35;41.03;;;26.83;;
12968;SDS011;6549;53.128;8.182;2023-02-15T13:17:36;38.95;;;25.98;;
12968;SDS011;6549;53.128;8.182;2023-02-15T13:20:36;40.30;;;26.58;;
12968;SDS011;6549;53.128;8.182;2023-02-15T13:24:42;40.97;;;25.85;;
12968;SDS011;6549;53.128;8.182;2023-02-15T13:27:32;46.08;;;28.50;;
12968;SDS011;6549;53.128;8.182;2023-02-15T13:30:38;39.25;;;27.17;;
12968;SDS011;6549;53.128;8.182;2023-02-15T13:33:49;40.50;;;26.92;;
12968;SDS011;6549;53.128;8.182;2023-02-15T13:40:31;41.28;;;26.63;;
12968;SDS011;6549;53.128;8.182;2023-02-15T13:46:54;40.45;;;26.20;;
12968;SDS011;6549;53.128;8.182;2023-02-15T13:50:07;38.08;;;26.52;;
12968;SDS011;6549;53.128;8.182;2023-02-15T14:00:44;38.47;;;25.00;;
12968;SDS011;6549;53.128;8.182;2023-02-15T14:27:43;40.75;;;26.73;;
12968;SDS011;6549;53.128;8.182;2023-02-15T14:30:54;37.75;;;25.92;;
12968;SDS011;6549;53.128;8.182;2023-02-15T14:33:57;39.38;;;26.00;;
12968;SDS011;6549;53.128;8.182;2023-02-15T14:36:58;40.30;;;25.08;;
12968;SDS011;6549;53.128;8.182;2023-02-15T14:40:01;39.17;;;25.42;;
12968;SDS011;6549;53.128;8.182;2023-02-15T14:47:11;40.50;;;26.75;;
12968;SDS011;6549;53.128;8.182;2023-02-15T14:53:34;41.08;;;26.17;;
12968;SDS011;6549;53.128;8.182;2023-02-15T14:56:38;34.72;;;22.65;;
12968;SDS011;6549;53.128;8.182;2023-02-15T14:59:53;38.03;;;23.90;;
12968;SDS011;6549;53.128;8.182;2023-02-15T15:02:58;41.13;;;26.02;;
12968;SDS011;6549;53.128;8.182;2023-02-15T15:05:59;37.10;;;24.75;;
12968;SDS011;6549;53.128;8.182;2023-02-15T15:09:12;35.58;;;23.50;;
12968;SDS011;6549;53.128;8.182;2023-02-15T15:18:43;35.03;;;22.92;;
12968;SDS011;6549;53.128;8.182;2023-02-15T15:27:52;37.85;;;23.35;;
12968;SDS011;6549;53.128;8.182;2023-02-15T15:30:54;40.15;;;23.50;;
12968;SDS011;6549;53.128;8.182;2023-02-15T15:37:25;35.55;;;21.88;;
12968;SDS011;6549;53.128;8.182;2023-02-15T15:47:29;34.88;;;22.17;;
12968;SDS011;6549;53.128;8.182;2023-02-15T15:50:40;31.77;;;20.00;;
12968;SDS011;6549;53.128;8.182;2023-02-15T15:53:42;32.78;;;20.42;;
12968;SDS011;6549;53.128;8.182;2023-02-15T15:56:48;37.05;;;22.70;;
12968;SDS011;6549;53.128;8.182;2023-02-15T15:59:51;36.20;;;21.63;;
12968;SDS011;6549;53.128;8.182;2023-02-15T16:02:53;32.43;;;20.27;;
12968;SDS011;6549;53.128;8.182;2023-02-15T16:05:55;32.38;;;20.45;;
12968;SDS011;6549;53.128;8.182;2023-02-15T16:09:09;37.65;;;21.52;;
12968;SDS011;6549;53.128;8.182;2023-02-15T16:12:14;38.95;;;24.00;;
12968;SDS011;6549;53.128;8.182;2023-02-15T16:15:25;43.88;;;24.65;;
12968;SDS011;6549;53.128;8.182;2023-02-15T16:21:34;44.50;;;25.15;;
12968;SDS011;6549;53.128;8.182;2023-02-15T16:27:54;38.10;;;23.40;;
12968;SDS011;6549;53.128;8.182;2023-02-15T16:31:05;38.70;;;23.33;;
12968;SDS011;6549;53.128;8.182;2023-02-15T16:34:17;36.47;;;22.88;;
12968;SDS011;6549;53.128;8.182;2023-02-15T16:37:18;33.42;;;20.85;;
12968;SDS011;6549;53.128;8.182;2023-02-15T16:43:24;30.90;;;19.47;;
12968;SDS011;6549;53.128;8.182;2023-02-15T16:46:39;33.65;;;20.80;;
12968;SDS011;6549;53.128;8.182;2023-02-15T16:49:44;41.85;;;24.95;;
12968;SDS011;6549;53.128;8.182;2023-02-15T16:52:47;38.95;;;23.85;;
12968;SDS011;6549;53.128;8.182;2023-02-15T16:55:50;36.17;;;22.98;;
12968;SDS011;6549;53.128;8.182;2023-02-15T16:58:53;32.83;;;20.70;;
12968;SDS011;6549;53.128;8.182;2023-02-15T17:01:55;36.75;;;22.58;;
12968;SDS011;6549;53.128;8.182;2023-02-15T17:05:01;33.25;;;21.63;;
12968;SDS011;6549;53.128;8.182;2023-02-15T17:08:17;32.80;;;19.90;;
12968;SDS011;6549;53.128;8.182;2023-02-15T17:11:33;35.97;;;21.05;;
12968;SDS011;6549;53.128;8.182;2023-02-15T17:14:40;32.95;;;21.27;;
12968;SDS011;6549;53.128;8.182;2023-02-15T17:17:41;33.22;;;20.83;;
12968;SDS011;6549;53.128;8.182;2023-02-15T17:20:42;30.20;;;19.45;;
12968;SDS011;6549;53.128;8.182;2023-02-15T17:23:44;29.83;;;19.92;;
12968;SDS011;6549;53.128;8.182;2023-02-15T17:26:48;31.83;;;20.02;;
12968;SDS011;6549;53.128;8.182;2023-02-15T17:29:57;38.17;;;22.80;;
12968;SDS011;6549;53.128;8.182;2023-02-15T17:33:00;37.80;;;24.05;;
12968;SDS011;6549;53.128;8.182;2023-02-15T17:36:11;38.75;;;23.35;;
12968;SDS011;6549;53.128;8.182;2023-02-15T17:42:20;41.40;;;24.73;;
12968;SDS011;6549;53.128;8.182;2023-02-15T17:45:21;40.67;;;23.87;;
12968;SDS011;6549;53.128;8.182;2023-02-15T17:48:28;37.10;;;23.98;;
12968;SDS011;6549;53.128;8.182;2023-02-15T17:51:32;36.63;;;22.98;;
12968;SDS011;6549;53.128;8.182;2023-02-15T17:54:34;33.00;;;22.13;;
12968;SDS011;6549;53.128;8.182;2023-02-15T17:57:53;32.85;;;19.83;;
12968;SDS011;6549;53.128;8.182;2023-02-15T18:00:54;32.57;;;19.80;;
12968;SDS011;6549;53.128;8.182;2023-02-15T18:04:15;30.50;;;19.30;;
12968;SDS011;6549;53.128;8.182;2023-02-15T18:07:34;28.42;;;18.23;;
12968;SDS011;6549;53.128;8.182;2023-02-15T18:10:53;24.50;;;16.52;;
12968;SDS011;6549;53.128;8.182;2023-02-15T18:14:11;27.67;;;18.23;;
12968;SDS011;6549;53.128;8.182;2023-02-15T18:17:12;27.27;;;17.63;;
12968;SDS011;6549;53.128;8.182;2023-02-15T18:20:17;27.23;;;18.05;;
12968;SDS011;6549;53.128;8.182;2023-02-15T18:23:23;29.45;;;17.63;;
12968;SDS011;6549;53.128;8.182;2023-02-15T18:26:24;28.63;;;17.93;;
12968;SDS011;6549;53.128;8.182;2023-02-15T18:29:24;28.27;;;17.83;;
12968;SDS011;6549;53.128;8.182;2023-02-15T18:32:27;26.92;;;18.40;;
12968;SDS011;6549;53.128;8.182;2023-02-15T18:35:35;26.08;;;17.33;;
12968;SDS011;6549;53.128;8.182;2023-02-15T18:38:35;26.67;;;17.98;;
12968;SDS011;6549;53.128;8.182;2023-02-15T18:41:36;26.10;;;18.60;;
12968;SDS011;6549;53.128;8.182;2023-02-15T18:44:36;32.05;;;19.75;;
12968;SDS011;6549;53.128;8.182;2023-02-15T18:47:36;30.13;;;19.05;;
12968;SDS011;6549;53.128;8.182;2023-02-15T18:50:37;34.58;;;21.83;;
12968;SDS011;6549;53.128;8.182;2023-02-15T18:53:37;29.52;;;19.13;;
12968;SDS011;6549;53.128;8.182;2023-02-15T18:56:38;31.33;;;19.33;;
12968;SDS011;6549;53.128;8.182;2023-02-15T18:59:38;31.30;;;19.52;;
12968;SDS011;6549;53.128;8.182;2023-02-15T19:02:38;30.77;;;19.40;;
12968;SDS011;6549;53.128;8.182;2023-02-15T19:05:39;30.97;;;19.47;;
12968;SDS011;6549;53.128;8.182;2023-02-15T19:08:44;26.63;;;17.67;;
12968;SDS011;6549;53.128;8.182;2023-02-15T19:11:51;29.75;;;18.10;;
12968;SDS011;6549;53.128;8.182;2023-02-15T19:14:53;28.33;;;17.48;;
12968;SDS011;6549;53.128;8.182;2023-02-15T19:17:55;25.00;;;16.30;;
12968;SDS011;6549;53.128;8.182;2023-02-15T19:20:55;33.17;;;19.98;;
12968;SDS011;6549;53.128;8.182;2023-02-15T19:24:03;43.27;;;26.30;;
12968;SDS011;6549;53.128;8.182;2023-02-15T19:27:17;46.13;;;27.77;;
12968;SDS011;6549;53.128;8.182;2023-02-15T19:30:25;39.17;;;23.80;;
12968;SDS011;6549;53.128;8.182;2023-02-15T19:33:28;34.63;;;21.77;;
12968;SDS011;6549;53.128;8.182;2023-02-15T19:36:35;46.47;;;28.02;;
12968;SDS011;6549;53.128;8.182;2023-02-15T19:39:38;41.00;;;25.58;;
12968;SDS011;6549;53.128;8.182;2023-02-15T19:42:39;39.90;;;23.52;;
12968;SDS011;6549;53.128;8.182;2023-02-15T19:45:39;35.43;;;22.03;;
12968;SDS011;6549;53.128;8.182;2023-02-15T19:48:39;34.55;;;21.35;;
12968;SDS011;6549;53.128;8.182;2023-02-15T19:51:40;34.77;;;21.27;;
12968;SDS011;6549;53.128;8.182;2023-02-15T19:54:40;31.98;;;19.20;;
12968;SDS011;6549;53.128;8.182;2023-02-15T19:57:41;29.83;;;18.50;;
12968;SDS011;6549;53.128;8.182;2023-02-15T20:00:41;33.97;;;18.40;;
12968;SDS011;6549;53.128;8.182;2023-02-15T20:03:42;32.70;;;20.00;;
12968;SDS011;6549;53.128;8.182;2023-02-15T20:06:42;32.15;;;19.42;;
12968;SDS011;6549;53.128;8.182;2023-02-15T20:09:43;32.05;;;19.38;;
12968;SDS011;6549;53.128;8.182;2023-02-15T20:12:44;36.53;;;21.40;;
12968;SDS011;6549;53.128;8.182;2023-02-15T20:15:45;33.58;;;20.80;;
12968;SDS011;6549;53.128;8.182;2023-02-15T20:18:46;36.83;;;21.73;;
12968;SDS011;6549;53.128;8.182;2023-02-15T20:21:46;35.93;;;21.80;;
12968;SDS011;6549;53.128;8.182;2023-02-15T20:24:53;37.85;;;21.73;;
12968;SDS011;6549;53.128;8.182;2023-02-15T20:27:55;40.33;;;23.83;;
12968;SDS011;6549;53.128;8.182;2023-02-15T20:30:58;42.75;;;24.85;;
12968;SDS011;6549;53.128;8.182;2023-02-15T20:33:58;37.53;;;22.83;;
12968;SDS011;6549;53.128;8.182;2023-02-15T20:36:58;40.40;;;24.87;;
12968;SDS011;6549;53.128;8.182;2023-02-15T20:39:59;39.17;;;23.77;;
12968;SDS011;6549;53.128;8.182;2023-02-15T20:42:59;60.20;;;31.75;;
12968;SDS011;6549;53.128;8.182;2023-02-15T20:46:00;44.70;;;26.85;;
12968;SDS011;6549;53.128;8.182;2023-02-15T20:49:01;45.50;;;27.15;;
12968;SDS011;6549;53.128;8.182;2023-02-15T20:52:01;50.28;;;28.48;;
12968;SDS011;6549;53.128;8.182;2023-02-15T20:55:09;57.47;;;34.15;;
12968;SDS011;6549;53.128;8.182;2023-02-15T20:58:23;54.80;;;30.85;;